Etusivu
METAR-TAF:

METAR-TAF

Lentoasemat :

Kenneth Kaundan kansainvälinen lentoasema

Lusaka, Sambia

Leveyspiiri: 15-19-51S, Pituuspiiri: 028-27-09E, korkeus merenpinnasta: 1152 m

Tämänhetkinen sää

Tämä raportti tehtiin 11 tuntia ja 46 minuuttia sitten, kello 10.00 UTC
Tuuli 10 kn idästä/koillisesta
Lämpötila 32°C
Kosteus 16%
Ilmanpaine 1019 hPa
Näkyvyys: 7000 m

METAR: FLKK 181000Z 07010KT 7000 NSC 32/03 Q1019

Aika: 23:46 (21:46 UTC)

Sääennuste

Tämä raportti tehtiin 5 tuntia ja 46 minuuttia sitten, kello 16.00 UTC
Ennuste voimassa 18. päivästä klo 18 UTC - 19. päivään klo 24 UTC
Tuuli 5 kn idästä
Näkyvyys 10 km tai enemmän
ei pilviä alle 1500 m:ssä eikä cumulonimbus-pilviä

TAF: FLKK 181600Z 1818/1924 09005KT CAVOK

Säähavainnot ja -ennusteet yli 4000 lentoasemalta (METAR- ja TAF-raportit).

Käytössä olevat sääasemat on merkitty karttaan keltaisilla ja punaisilla pisteillä.

Aseta hiiri pisteen päälle nähdäksesi sääaseman nimen.

Klikkaa sitten nähdäksesi säähavainnot ja -ennusteet.

Kartan vaihtaminen: klikkaa mustalla rastilla varustettuja vihreitä pisteitä, niin voit zoomata sisään; viivalla varustettua vihreää pistettä, niin voit zoomata ulos tai vihreitä nuolia, niin pääset viereisille kartoille.


METAR-TAF: